createdAt,value
2019-05-10T00:00:31.352Z,99.90
2019-05-10T00:01:54.136Z,99.90
2019-05-10T00:03:16.590Z,99.90
2019-05-10T00:04:41.655Z,99.90
2019-05-10T00:06:04.482Z,99.90
2019-05-10T00:07:27.078Z,99.90
2019-05-10T00:08:46.000Z,99.90
2019-05-10T00:09:49.898Z,99.90
2019-05-10T00:11:17.453Z,99.90
2019-05-10T00:12:45.139Z,99.90
2019-05-10T00:13:54.928Z,99.90
2019-05-10T00:14:59.732Z,99.90
2019-05-10T00:16:04.487Z,99.90
2019-05-10T00:17:28.161Z,99.90
2019-05-10T00:18:32.756Z,99.90
2019-05-10T00:19:37.534Z,99.90
2019-05-10T00:20:42.134Z,99.90
2019-05-10T00:21:47.679Z,99.90
2019-05-10T00:22:52.355Z,99.90
2019-05-10T00:23:57.156Z,99.90
2019-05-10T00:25:04.192Z,99.90
2019-05-10T00:26:08.478Z,99.90
2019-05-10T00:27:13.181Z,99.90
2019-05-10T00:28:17.971Z,99.90
2019-05-10T00:29:22.593Z,99.90
2019-05-10T00:30:27.428Z,99.90
2019-05-10T00:31:32.128Z,99.90
2019-05-10T00:32:36.964Z,99.90
2019-05-10T00:33:41.702Z,99.90
2019-05-10T00:34:46.499Z,99.90
2019-05-10T00:35:51.218Z,99.90
2019-05-10T00:36:55.977Z,99.90
2019-05-10T00:38:01.546Z,99.90
2019-05-10T00:39:07.414Z,99.90
2019-05-10T00:40:12.178Z,99.90
2019-05-10T00:41:17.195Z,99.90
2019-05-10T00:42:21.835Z,99.90
2019-05-10T00:43:26.813Z,99.90
2019-05-10T00:44:31.430Z,99.90
2019-05-10T00:45:37.388Z,99.90
2019-05-10T00:46:42.125Z,99.90
2019-05-10T00:47:46.908Z,99.90
2019-05-10T00:48:51.500Z,99.90
2019-05-10T00:49:56.366Z,99.90
2019-05-10T00:51:00.985Z,99.90
2019-05-10T00:52:05.929Z,99.90
2019-05-10T00:53:13.422Z,99.90
2019-05-10T00:54:18.365Z,99.90
2019-05-10T00:55:23.012Z,99.90
2019-05-10T00:56:27.893Z,99.90
2019-05-10T00:57:32.581Z,99.90
2019-05-10T00:58:37.369Z,99.90
2019-05-10T00:59:42.003Z,99.90
2019-05-10T01:00:46.867Z,99.90
2019-05-10T01:01:51.701Z,99.90
2019-05-10T01:02:56.535Z,99.90
2019-05-10T01:04:02.171Z,99.90
2019-05-10T01:05:07.182Z,99.90
2019-05-10T01:06:11.792Z,99.90
2019-05-10T01:07:16.703Z,99.90
2019-05-10T01:08:21.373Z,99.90
2019-05-10T01:09:26.309Z,99.90
2019-05-10T01:10:30.949Z,99.90
2019-05-10T01:11:35.777Z,99.90
2019-05-10T01:12:40.407Z,99.90
2019-05-10T01:13:45.240Z,99.90
2019-05-10T01:14:49.929Z,99.90
2019-05-10T01:15:54.780Z,99.90
2019-05-10T01:16:59.559Z,99.90
2019-05-10T01:18:04.378Z,99.90
2019-05-10T01:19:09.064Z,99.90
2019-05-10T01:20:14.204Z,99.90
2019-05-10T01:21:18.840Z,99.90
2019-05-10T01:22:23.609Z,99.90
2019-05-10T01:23:28.234Z,99.90
2019-05-10T01:24:33.041Z,99.90
2019-05-10T01:25:37.742Z,99.90
2019-05-10T01:26:42.636Z,99.90
2019-05-10T01:27:47.319Z,99.90
2019-05-10T01:28:52.111Z,99.90
2019-05-10T01:29:56.686Z,99.90
2019-05-10T01:31:01.499Z,99.90
2019-05-10T01:32:07.202Z,99.90
2019-05-10T01:33:12.018Z,99.90
2019-05-10T01:34:16.619Z,99.90
2019-05-10T01:35:21.447Z,99.90
2019-05-10T01:36:26.147Z,99.90
2019-05-10T01:37:30.997Z,99.90
2019-05-10T01:38:35.659Z,99.90
2019-05-10T01:39:40.514Z,99.90
2019-05-10T01:40:46.124Z,99.90
2019-05-10T01:41:50.879Z,99.90
2019-05-10T01:42:55.465Z,99.90
2019-05-10T01:44:00.245Z,99.90
2019-05-10T01:45:05.709Z,99.90
2019-05-10T01:46:10.513Z,99.90
2019-05-10T01:47:15.162Z,99.90
2019-05-10T01:48:19.974Z,99.90
2019-05-10T01:49:24.610Z,99.90
2019-05-10T01:50:29.360Z,99.90
2019-05-10T01:51:33.951Z,99.90
2019-05-10T01:52:38.779Z,99.90
2019-05-10T01:53:43.391Z,99.90
2019-05-10T01:54:48.211Z,99.90
2019-05-10T01:55:53.144Z,99.90
2019-05-10T01:56:58.099Z,99.90
2019-05-10T01:58:02.748Z,99.90
2019-05-10T01:59:07.595Z,99.90
2019-05-10T02:00:12.644Z,99.90
2019-05-10T02:01:17.433Z,99.90
2019-05-10T02:02:22.019Z,99.90
2019-05-10T02:03:27.045Z,99.90
2019-05-10T02:04:31.630Z,99.90
2019-05-10T02:05:36.410Z,99.90
2019-05-10T02:06:41.127Z,99.90
2019-05-10T02:07:45.918Z,99.90
2019-05-10T02:08:50.532Z,99.90
2019-05-10T02:09:55.372Z,99.90
2019-05-10T02:10:59.998Z,99.90
2019-05-10T02:12:04.895Z,99.90
2019-05-10T02:13:09.744Z,99.90
2019-05-10T02:14:14.540Z,99.90
2019-05-10T02:15:19.549Z,99.90
2019-05-10T02:16:24.395Z,99.90
2019-05-10T02:17:28.983Z,99.90
2019-05-10T02:18:33.799Z,99.90
2019-05-10T02:19:38.408Z,99.90
2019-05-10T02:20:43.223Z,99.90
2019-05-10T02:21:47.911Z,99.90
2019-05-10T02:22:53.112Z,99.90
2019-05-10T02:23:57.837Z,99.90
2019-05-10T02:25:02.653Z,99.90
2019-05-10T02:26:09.794Z,99.90
2019-05-10T02:27:13.992Z,99.90
2019-05-10T02:28:18.572Z,99.90
2019-05-10T02:29:23.387Z,99.90
2019-05-10T02:30:28.058Z,99.90
2019-05-10T02:31:33.016Z,99.90
2019-05-10T02:32:37.618Z,99.90
2019-05-10T02:33:43.469Z,99.90
2019-05-10T02:34:48.117Z,99.90
2019-05-10T02:35:52.912Z,99.90
2019-05-10T02:36:57.535Z,99.90
2019-05-10T02:38:02.386Z,99.90
2019-05-10T02:39:08.267Z,99.90
2019-05-10T02:40:13.732Z,99.90
2019-05-10T02:41:18.369Z,99.90
2019-05-10T02:42:23.198Z,99.90
2019-05-10T02:43:27.846Z,99.90
2019-05-10T02:44:32.777Z,99.90
2019-05-10T02:45:37.434Z,99.90
2019-05-10T02:46:43.328Z,99.90
2019-05-10T02:47:47.958Z,99.90
2019-05-10T02:48:53.838Z,99.90
2019-05-10T02:49:59.287Z,99.90
2019-05-10T02:51:04.511Z,99.90
2019-05-10T02:52:09.273Z,99.90
2019-05-10T02:53:14.260Z,99.90
2019-05-10T02:54:22.450Z,99.90
2019-05-10T02:55:27.454Z,99.90
2019-05-10T02:56:32.838Z,99.90
2019-05-10T02:57:38.358Z,99.90
2019-05-10T02:58:43.900Z,99.90
2019-05-10T02:59:49.941Z,99.90
2019-05-10T03:00:55.448Z,99.90
2019-05-10T03:02:03.335Z,99.90
2019-05-10T03:03:08.807Z,99.90
2019-05-10T03:04:14.523Z,99.90
2019-05-10T03:05:19.101Z,99.90
2019-05-10T03:06:26.539Z,99.90
2019-05-10T03:07:34.785Z,99.90
2019-05-10T03:08:51.143Z,99.90
2019-05-10T03:09:55.801Z,99.90
2019-05-10T03:11:00.858Z,99.90
2019-05-10T03:12:26.121Z,99.90
2019-05-10T03:13:31.823Z,99.90
2019-05-10T03:14:41.598Z,98.60
2019-05-10T03:15:49.647Z,98.50
2019-05-10T03:16:54.249Z,98.50
2019-05-10T03:18:00.722Z,97.00
2019-05-10T03:19:06.841Z,93.70
2019-05-10T03:20:12.474Z,95.50
2019-05-10T03:21:18.288Z,94.50
2019-05-10T03:22:25.028Z,95.20
2019-05-10T03:23:30.035Z,97.20
2019-05-10T03:24:35.019Z,94.70
2019-05-10T03:25:39.607Z,95.50
2019-05-10T03:26:51.098Z,96.30
2019-05-10T03:27:52.489Z,93.90
2019-05-10T03:28:57.334Z,96.60
2019-05-10T03:30:02.001Z,91.60
2019-05-10T03:31:08.126Z,86.10
2019-05-10T03:32:12.821Z,84.20
2019-05-10T03:33:17.741Z,78.70
2019-05-10T03:34:22.509Z,72.80
2019-05-10T03:35:27.655Z,74.50
2019-05-10T03:36:32.524Z,66.80
2019-05-10T03:37:37.552Z,75.90
2019-05-10T03:38:42.379Z,71.50
2019-05-10T03:39:48.013Z,81.90
2019-05-10T03:40:53.181Z,78.40
2019-05-10T03:41:57.961Z,79.00
2019-05-10T03:43:02.763Z,75.00
2019-05-10T03:44:07.540Z,65.00
2019-05-10T03:45:12.293Z,66.80
2019-05-10T03:46:17.104Z,64.00
2019-05-10T03:47:22.744Z,61.20
2019-05-10T03:48:27.656Z,63.40
2019-05-10T03:49:32.306Z,66.70
2019-05-10T03:50:37.095Z,58.90
2019-05-10T03:51:41.716Z,57.20
2019-05-10T03:52:51.413Z,58.30
2019-05-10T03:53:52.893Z,62.10
2019-05-10T03:54:57.645Z,61.00
2019-05-10T03:56:02.237Z,69.80
2019-05-10T03:57:13.562Z,65.60
2019-05-10T03:58:13.387Z,68.60
2019-05-10T03:59:18.364Z,64.90
2019-05-10T04:00:23.894Z,64.90
2019-05-10T04:01:28.772Z,72.00
2019-05-10T04:02:33.476Z,71.10
2019-05-10T04:03:38.451Z,72.50
2019-05-10T04:04:43.137Z,77.60
2019-05-10T04:05:47.941Z,73.00
2019-05-10T04:06:52.671Z,76.10
2019-05-10T04:07:57.878Z,79.30
2019-05-10T04:09:02.544Z,75.40
2019-05-10T04:10:09.387Z,71.10
2019-05-10T04:11:13.994Z,72.10
2019-05-10T04:12:18.832Z,75.10
2019-05-10T04:13:23.465Z,81.00
2019-05-10T04:14:28.284Z,78.40
2019-05-10T04:15:32.905Z,88.60
2019-05-10T04:16:40.465Z,89.70
2019-05-10T04:17:49.515Z,91.50
2019-05-10T04:18:51.806Z,84.20
2019-05-10T04:19:56.382Z,84.80
2019-05-10T04:21:01.190Z,85.30
2019-05-10T04:22:05.927Z,86.00
2019-05-10T04:23:10.937Z,89.70
2019-05-10T04:24:15.625Z,87.40
2019-05-10T04:25:20.454Z,81.50
2019-05-10T04:26:25.090Z,84.00
2019-05-10T04:27:32.852Z,78.60
2019-05-10T04:28:36.297Z,77.10
2019-05-10T04:29:41.194Z,84.70
2019-05-10T04:30:46.219Z,76.20
2019-05-10T04:31:51.000Z,79.10
2019-05-10T04:32:55.628Z,80.00
2019-05-10T04:34:00.460Z,80.50
2019-05-10T04:35:05.325Z,76.60
2019-05-10T04:36:12.745Z,76.40
2019-05-10T04:37:16.451Z,74.60
2019-05-10T04:38:21.327Z,67.50
2019-05-10T04:39:25.935Z,66.60
2019-05-10T04:40:30.703Z,68.00
2019-05-10T04:41:35.297Z,61.90
2019-05-10T04:42:40.267Z,66.30
2019-05-10T04:43:45.011Z,65.30
2019-05-10T04:44:53.212Z,70.60
2019-05-10T04:45:56.192Z,70.50
2019-05-10T04:47:00.957Z,61.10
2019-05-10T04:48:05.565Z,60.30
2019-05-10T04:49:10.400Z,52.20
2019-05-10T04:50:15.217Z,47.00
2019-05-10T04:51:20.505Z,38.30
2019-05-10T04:52:25.118Z,29.70
2019-05-10T04:53:29.957Z,27.90
2019-05-10T04:54:35.602Z,22.40
2019-05-10T04:55:40.365Z,20.30
2019-05-10T04:56:45.008Z,21.90
2019-05-10T04:57:51.348Z,22.60
2019-05-10T04:58:56.363Z,21.70
2019-05-10T05:00:01.145Z,15.70
2019-05-10T05:01:05.910Z,17.50
2019-05-10T05:02:10.867Z,18.90
2019-05-10T05:03:15.483Z,7.70
2019-05-10T05:04:20.286Z,8.30
2019-05-10T05:05:25.022Z,10.50
2019-05-10T05:06:29.799Z,4.60
2019-05-10T05:07:34.469Z,6.20
2019-05-10T05:08:39.502Z,1.00
2019-05-10T05:09:44.114Z,5.10
2019-05-10T05:10:48.936Z,1.00
2019-05-10T05:11:53.561Z,1.00
2019-05-10T05:12:58.344Z,1.00
2019-05-10T05:14:03.125Z,1.00
2019-05-10T05:15:08.191Z,1.00
2019-05-10T05:16:12.807Z,1.00
2019-05-10T05:17:17.612Z,1.00
2019-05-10T05:18:22.346Z,1.00
2019-05-10T05:19:27.307Z,1.00
2019-05-10T05:20:31.956Z,1.00
2019-05-10T05:21:36.727Z,1.00
2019-05-10T05:22:41.587Z,1.00
2019-05-10T05:23:46.421Z,1.00
2019-05-10T05:24:55.245Z,1.00
2019-05-10T05:25:58.973Z,1.00
2019-05-10T05:27:03.785Z,1.20
2019-05-10T05:28:08.674Z,1.00
2019-05-10T05:29:14.492Z,1.10
2019-05-10T05:30:19.669Z,1.00
2019-05-10T05:31:24.515Z,1.00
2019-05-10T05:32:29.511Z,1.00
2019-05-10T05:33:35.691Z,1.00
2019-05-10T05:34:40.612Z,1.00
2019-05-10T05:35:45.564Z,1.00
2019-05-10T05:36:50.601Z,1.00
2019-05-10T05:37:55.447Z,1.00
2019-05-10T05:39:00.238Z,1.00
2019-05-10T05:40:05.808Z,1.00
2019-05-10T05:41:10.792Z,1.00
2019-05-10T05:42:16.969Z,1.00
2019-05-10T05:43:21.993Z,1.00
2019-05-10T05:44:27.884Z,1.00
2019-05-10T05:45:34.086Z,1.00
2019-05-10T05:46:39.662Z,1.00
2019-05-10T05:47:45.017Z,1.00
2019-05-10T05:48:51.547Z,1.00
2019-05-10T05:49:56.966Z,1.00
2019-05-10T05:51:01.887Z,1.00
2019-05-10T05:52:06.796Z,1.00
2019-05-10T05:53:11.718Z,1.00
2019-05-10T05:54:20.647Z,1.00
2019-05-10T05:55:23.439Z,1.00
2019-05-10T05:56:28.371Z,1.00
2019-05-10T05:57:33.159Z,1.00
2019-05-10T05:58:44.263Z,1.00
2019-05-10T05:59:44.514Z,1.00
2019-05-10T06:00:49.360Z,1.00
2019-05-10T06:01:54.224Z,1.00
2019-05-10T06:02:59.152Z,1.00
2019-05-10T06:04:06.349Z,1.00
2019-05-10T06:05:10.386Z,1.00
2019-05-10T06:06:29.073Z,1.00
2019-05-10T06:07:37.925Z,1.00
2019-05-10T06:08:40.348Z,1.00
2019-05-10T06:09:45.178Z,1.00
2019-05-10T06:10:56.191Z,1.00
2019-05-10T06:11:56.443Z,1.00
2019-05-10T06:13:01.312Z,1.00
2019-05-10T06:14:10.925Z,1.00
2019-05-10T06:15:13.365Z,1.00
2019-05-10T06:16:18.260Z,1.00
2019-05-10T06:17:23.651Z,1.00
2019-05-10T06:18:29.526Z,1.00
2019-05-10T06:19:34.692Z,1.00
2019-05-10T06:20:44.425Z,1.00
2019-05-10T06:21:46.028Z,1.00
2019-05-10T06:23:05.550Z,1.00
2019-05-10T06:23:59.433Z,1.00
2019-05-10T06:25:04.007Z,1.00
2019-05-10T06:26:21.109Z,1.00
2019-05-10T06:27:15.301Z,1.00
2019-05-10T06:28:28.751Z,1.00
2019-05-10T06:29:26.772Z,1.00
2019-05-10T06:30:32.032Z,1.00
2019-05-10T06:31:36.822Z,1.00
2019-05-10T06:32:41.700Z,1.00
2019-05-10T06:33:46.870Z,1.00
2019-05-10T06:34:51.736Z,1.00
2019-05-10T06:35:57.551Z,99.90
2019-05-10T06:37:02.338Z,99.90
2019-05-10T06:38:07.101Z,99.90
2019-05-10T06:39:11.854Z,99.90
2019-05-10T06:40:16.932Z,99.90
2019-05-10T06:41:21.737Z,99.90
2019-05-10T06:42:28.705Z,99.90
2019-05-10T06:43:33.024Z,99.90
2019-05-10T06:44:37.813Z,99.90
2019-05-10T06:45:46.797Z,77.30
2019-05-10T06:46:49.107Z,1.00
2019-05-10T06:47:53.869Z,1.00
2019-05-10T06:49:07.326Z,1.00
2019-05-10T06:50:05.853Z,1.00
2019-05-10T06:51:16.392Z,1.00
2019-05-10T06:52:21.971Z,1.00
2019-05-10T06:53:27.718Z,1.00
2019-05-10T06:54:32.699Z,1.00
2019-05-10T06:55:38.662Z,1.00
2019-05-10T06:56:43.496Z,1.00
2019-05-10T06:57:49.871Z,1.00
2019-05-10T06:58:54.995Z,1.00
2019-05-10T07:00:06.180Z,1.00
2019-05-10T07:01:07.445Z,99.90
2019-05-10T07:02:12.232Z,99.90
2019-05-10T07:03:17.000Z,99.90
2019-05-10T07:04:21.866Z,1.00
2019-05-10T07:05:27.834Z,1.00
2019-05-10T07:06:32.666Z,99.90
2019-05-10T07:07:45.509Z,99.90
2019-05-10T07:08:45.989Z,99.90
2019-05-10T07:10:15.795Z,99.90
2019-05-10T07:10:57.170Z,99.90
2019-05-10T07:12:02.018Z,99.90
2019-05-10T07:13:06.935Z,1.00
2019-05-10T07:14:11.900Z,1.00
2019-05-10T07:15:16.867Z,1.00
2019-05-10T07:16:24.420Z,1.00
2019-05-10T07:17:28.159Z,1.00
2019-05-10T07:18:33.042Z,99.90
2019-05-10T07:19:41.617Z,99.90
2019-05-10T07:20:45.456Z,1.00
2019-05-10T07:21:51.171Z,12.50
2019-05-10T07:23:00.067Z,1.00
2019-05-10T07:24:02.813Z,1.00
2019-05-10T07:25:07.886Z,1.00
2019-05-10T07:26:17.639Z,1.00
2019-05-10T07:27:19.433Z,99.90
2019-05-10T07:28:24.269Z,1.00
2019-05-10T07:29:30.494Z,1.00
2019-05-10T07:30:36.622Z,1.00
2019-05-10T07:31:41.633Z,1.00
2019-05-10T07:32:46.406Z,1.00
2019-05-10T07:33:51.212Z,1.00
2019-05-10T07:35:00.528Z,99.90
2019-05-10T07:36:02.850Z,1.00
2019-05-10T07:37:07.762Z,1.00
2019-05-10T07:38:12.573Z,1.00
2019-05-10T07:39:17.498Z,1.00
2019-05-10T07:40:22.323Z,99.90
2019-05-10T07:41:29.161Z,1.00
2019-05-10T07:42:33.709Z,1.00
2019-05-10T07:43:38.591Z,99.90
2019-05-10T07:44:46.904Z,99.90
2019-05-10T07:45:49.981Z,1.00
2019-05-10T07:46:58.316Z,1.00
2019-05-10T07:48:02.389Z,1.00
2019-05-10T07:49:08.356Z,1.00
2019-05-10T07:50:13.313Z,1.00
2019-05-10T07:51:23.016Z,1.00
2019-05-10T07:52:25.205Z,99.90
2019-05-10T07:53:29.994Z,99.90
2019-05-10T07:54:37.634Z,1.00
2019-05-10T07:55:41.228Z,1.00
2019-05-10T07:56:47.957Z,1.00
2019-05-10T07:57:52.749Z,1.00
2019-05-10T07:59:00.483Z,1.00
2019-05-10T08:00:06.163Z,99.90
2019-05-10T08:01:10.916Z,99.90
2019-05-10T08:02:15.988Z,99.90
2019-05-10T08:03:23.721Z,99.90
2019-05-10T08:04:31.869Z,99.90
2019-05-10T08:05:33.836Z,99.90
2019-05-10T08:06:44.061Z,99.90
2019-05-10T08:07:45.080Z,1.00
2019-05-10T08:08:49.923Z,1.00
2019-05-10T08:09:54.695Z,1.00
2019-05-10T08:10:59.545Z,99.90
2019-05-10T08:12:05.275Z,1.00
2019-05-10T08:13:10.540Z,99.90
2019-05-10T08:14:15.359Z,1.00
2019-05-10T08:15:24.621Z,99.90
2019-05-10T08:16:29.034Z,27.80
2019-05-10T08:17:35.449Z,1.00
2019-05-10T08:18:42.409Z,99.90
2019-05-10T08:19:47.497Z,1.00
2019-05-10T08:20:56.801Z,99.90
2019-05-10T08:22:01.814Z,1.00
2019-05-10T08:23:05.302Z,1.00
2019-05-10T08:24:16.138Z,1.00
2019-05-10T08:25:16.858Z,1.00
2019-05-10T08:26:24.574Z,4.80
2019-05-10T08:27:28.210Z,1.00
2019-05-10T08:28:36.482Z,1.00
2019-05-10T08:29:39.597Z,99.90
2019-05-10T08:30:58.793Z,7.70
2019-05-10T08:31:55.932Z,1.00
2019-05-10T08:33:00.170Z,1.00
2019-05-10T08:34:06.130Z,1.00
2019-05-10T08:35:16.640Z,1.00
2019-05-10T08:36:17.887Z,99.90
2019-05-10T08:37:30.967Z,1.00
2019-05-10T08:38:31.769Z,1.00
2019-05-10T08:39:45.316Z,1.00
2019-05-10T08:40:42.990Z,1.00
2019-05-10T08:42:03.676Z,45.00
2019-05-10T08:43:04.827Z,1.00
2019-05-10T08:44:04.770Z,99.90
2019-05-10T08:45:09.064Z,12.70
2019-05-10T08:46:13.968Z,1.00
2019-05-10T08:47:25.071Z,99.90
2019-05-10T08:48:27.605Z,99.90
2019-05-10T08:49:42.543Z,99.90
2019-05-10T08:50:49.676Z,99.90
2019-05-10T08:51:49.314Z,99.90
2019-05-10T08:52:56.738Z,87.70
2019-05-10T08:54:01.606Z,99.90
2019-05-10T08:55:06.088Z,99.90
2019-05-10T08:56:13.664Z,99.90
2019-05-10T08:57:18.687Z,99.90
2019-05-10T08:58:31.253Z,99.90
2019-05-10T08:59:30.943Z,99.90
2019-05-10T09:00:49.620Z,1.00
2019-05-10T09:01:46.568Z,1.00
2019-05-10T09:02:49.356Z,1.00
2019-05-10T09:03:59.327Z,1.00
2019-05-10T09:05:02.578Z,1.00
2019-05-10T09:06:11.542Z,1.00
2019-05-10T09:07:15.194Z,99.90
2019-05-10T09:08:24.331Z,99.90
2019-05-10T09:09:26.554Z,99.90
2019-05-10T09:10:32.370Z,99.90
2019-05-10T09:11:37.244Z,99.90
2019-05-10T09:12:50.872Z,1.00
2019-05-10T09:13:48.490Z,1.00
2019-05-10T09:14:57.576Z,1.00
2019-05-10T09:16:02.422Z,99.90
2019-05-10T09:17:06.838Z,99.90
2019-05-10T09:18:12.810Z,99.90
2019-05-10T09:19:18.965Z,99.90
2019-05-10T09:20:26.491Z,1.00
2019-05-10T09:21:32.161Z,1.00
2019-05-10T09:22:38.509Z,1.00
2019-05-10T09:23:43.644Z,1.00
2019-05-10T09:24:49.951Z,1.00
2019-05-10T09:25:54.860Z,1.00
2019-05-10T09:27:01.715Z,99.90
2019-05-10T09:28:11.527Z,99.90
2019-05-10T09:29:12.766Z,1.00
2019-05-10T09:30:32.455Z,1.00
2019-05-10T09:31:39.514Z,99.90
2019-05-10T09:32:43.650Z,1.00
2019-05-10T09:33:49.864Z,24.30
2019-05-10T09:34:59.694Z,1.00
2019-05-10T09:36:02.924Z,1.00
2019-05-10T09:37:13.133Z,1.00
2019-05-10T09:38:14.518Z,1.00
2019-05-10T09:39:22.579Z,1.00
2019-05-10T09:40:25.924Z,99.90
2019-05-10T09:41:36.090Z,1.00
2019-05-10T09:42:40.251Z,1.00
2019-05-10T09:43:49.231Z,99.90
2019-05-10T09:44:52.181Z,99.90
2019-05-10T09:45:56.893Z,1.00
2019-05-10T09:47:03.951Z,1.00
2019-05-10T09:48:08.248Z,1.00
2019-05-10T09:49:18.134Z,99.90
2019-05-10T09:50:19.691Z,1.00
2019-05-10T09:51:28.847Z,1.00
2019-05-10T09:52:32.139Z,1.00
2019-05-10T09:53:38.307Z,1.00
2019-05-10T09:54:43.428Z,1.00
2019-05-10T09:55:55.331Z,1.00
2019-05-10T09:56:57.332Z,1.00
2019-05-10T09:58:01.248Z,1.00
2019-05-10T09:59:08.214Z,22.10
2019-05-10T10:00:14.315Z,1.00
2019-05-10T10:01:21.788Z,97.70
2019-05-10T10:02:31.072Z,99.90
2019-05-10T10:03:39.755Z,1.00
2019-05-10T10:04:38.785Z,1.00
2019-05-10T10:05:43.604Z,1.00
2019-05-10T10:06:52.617Z,1.00
2019-05-10T10:07:55.074Z,1.00
2019-05-10T10:09:00.972Z,1.00
2019-05-10T10:10:07.498Z,1.00
2019-05-10T10:11:15.872Z,1.00
2019-05-10T10:12:18.974Z,1.00
2019-05-10T10:13:38.984Z,1.00
2019-05-10T10:14:37.799Z,1.00
2019-05-10T10:15:37.433Z,1.00
2019-05-10T10:16:49.334Z,3.70
2019-05-10T10:17:49.149Z,27.00
2019-05-10T10:18:53.982Z,15.70
2019-05-10T10:20:02.252Z,9.80
2019-05-10T10:21:07.081Z,42.50
2019-05-10T10:22:13.298Z,18.60
2019-05-10T10:23:19.439Z,11.30
2019-05-10T10:24:24.474Z,1.00
2019-05-10T10:25:30.089Z,1.00
2019-05-10T10:26:37.931Z,1.00
2019-05-10T10:27:42.532Z,1.00
2019-05-10T10:28:49.724Z,1.00
2019-05-10T10:29:57.197Z,1.00
2019-05-10T10:31:05.280Z,1.00
2019-05-10T10:32:08.122Z,1.00
2019-05-10T10:33:17.848Z,1.00
2019-05-10T10:34:19.719Z,1.00
2019-05-10T10:35:27.613Z,1.00
2019-05-10T10:36:31.535Z,1.00
2019-05-10T10:37:37.859Z,1.00
2019-05-10T10:38:47.125Z,1.00
2019-05-10T10:39:54.487Z,1.00
2019-05-10T10:40:57.571Z,1.00
2019-05-10T10:42:08.006Z,1.00
2019-05-10T10:43:09.153Z,1.00
2019-05-10T10:44:14.074Z,99.90
2019-05-10T10:45:19.125Z,99.90
2019-05-10T10:46:24.025Z,99.90
2019-05-10T10:47:32.182Z,99.90
2019-05-10T10:48:36.997Z,99.90
2019-05-10T10:49:42.004Z,99.90
2019-05-10T10:50:53.899Z,99.90
2019-05-10T10:51:53.303Z,1.00
2019-05-10T10:52:58.099Z,1.00
2019-05-10T10:54:02.918Z,1.00
2019-05-10T10:55:11.404Z,1.00
2019-05-10T10:56:14.716Z,1.00
2019-05-10T10:57:27.969Z,1.00
2019-05-10T10:58:32.931Z,1.00
2019-05-10T10:59:37.734Z,1.00
2019-05-10T11:00:42.760Z,1.00
2019-05-10T11:01:56.662Z,1.00
2019-05-10T11:02:54.387Z,1.00
2019-05-10T11:04:03.721Z,1.00
2019-05-10T11:05:06.407Z,1.00
2019-05-10T11:06:11.299Z,1.00
2019-05-10T11:07:16.088Z,1.00
2019-05-10T11:08:20.890Z,1.00
2019-05-10T11:09:25.691Z,1.00
2019-05-10T11:10:31.395Z,1.00
2019-05-10T11:11:44.411Z,1.00
2019-05-10T11:12:43.234Z,1.00
2019-05-10T11:13:57.496Z,1.00
2019-05-10T11:14:54.792Z,99.90
2019-05-10T11:16:09.933Z,45.00
2019-05-10T11:17:06.161Z,1.00
2019-05-10T11:18:12.158Z,1.00
2019-05-10T11:19:17.043Z,1.00
2019-05-10T11:20:24.751Z,1.00
2019-05-10T11:21:31.226Z,1.00
2019-05-10T11:22:41.993Z,1.00
2019-05-10T11:23:42.748Z,1.00
2019-05-10T11:24:53.322Z,1.00
2019-05-10T11:25:56.465Z,1.00
2019-05-10T11:27:01.072Z,1.00
2019-05-10T11:28:09.036Z,1.00
2019-05-10T11:29:13.975Z,1.00
2019-05-10T11:30:21.366Z,1.00
2019-05-10T11:31:26.115Z,99.90
2019-05-10T11:32:31.570Z,1.00
2019-05-10T11:33:36.605Z,1.00
2019-05-10T11:34:41.414Z,1.00
2019-05-10T11:35:46.332Z,6.70
2019-05-10T11:36:51.302Z,1.00
2019-05-10T11:37:56.185Z,1.00
2019-05-10T11:39:01.594Z,99.90
2019-05-10T11:40:11.289Z,1.00
2019-05-10T11:41:21.319Z,88.90
2019-05-10T11:42:22.267Z,1.00
2019-05-10T11:43:27.205Z,1.00
2019-05-10T11:44:32.199Z,1.00
2019-05-10T11:45:37.091Z,1.00
2019-05-10T11:46:42.030Z,1.00
2019-05-10T11:47:48.095Z,1.00
2019-05-10T11:48:53.353Z,1.00
2019-05-10T11:49:58.369Z,1.00
2019-05-10T11:51:05.794Z,1.00
2019-05-10T11:52:13.126Z,1.00
2019-05-10T11:53:18.034Z,1.00
2019-05-10T11:54:23.046Z,1.00
2019-05-10T11:55:28.056Z,99.90
2019-05-10T11:56:32.896Z,99.90
2019-05-10T11:57:43.640Z,1.00
2019-05-10T11:59:05.039Z,1.00
2019-05-10T11:59:52.579Z,1.00
2019-05-10T12:02:08.998Z,1.00
2019-05-10T12:03:15.463Z,99.90
2019-05-10T12:04:24.098Z,99.90
2019-05-10T12:05:26.824Z,1.00
2019-05-10T12:06:31.995Z,1.00
2019-05-10T12:07:45.481Z,26.20
2019-05-10T12:08:43.221Z,99.90
2019-05-10T12:09:53.403Z,99.90
2019-05-10T12:11:07.565Z,80.70
2019-05-10T12:12:03.280Z,99.90
2019-05-10T12:13:15.905Z,1.00
2019-05-10T12:14:14.567Z,1.00
2019-05-10T12:15:25.076Z,99.90
2019-05-10T12:16:26.188Z,1.00
2019-05-10T12:17:31.091Z,99.90
2019-05-10T12:18:36.561Z,99.90
2019-05-10T12:19:47.733Z,1.00
2019-05-10T12:21:00.262Z,99.90
2019-05-10T12:21:55.978Z,1.00
2019-05-10T12:23:03.392Z,26.10
2019-05-10T12:24:26.335Z,1.00
2019-05-10T12:26:19.913Z,99.90
2019-05-10T12:26:49.988Z,1.00
2019-05-10T12:27:41.779Z,1.00
2019-05-10T12:28:35.829Z,99.90
2019-05-10T12:29:40.419Z,99.90
2019-05-10T12:30:45.368Z,1.00
2019-05-10T12:31:55.154Z,1.00
2019-05-10T12:33:04.560Z,1.00
2019-05-10T12:34:09.026Z,1.00
2019-05-10T12:35:11.763Z,1.00
2019-05-10T12:36:23.518Z,99.90
2019-05-10T12:37:23.277Z,99.90
2019-05-10T12:38:29.720Z,99.90
2019-05-10T12:39:34.643Z,99.90
2019-05-10T12:40:41.732Z,99.90
2019-05-10T12:41:49.794Z,99.90
2019-05-10T12:42:53.619Z,99.90
2019-05-10T12:44:04.169Z,1.00
2019-05-10T12:45:05.459Z,1.00
2019-05-10T12:46:10.591Z,99.90
2019-05-10T12:47:15.696Z,1.00
2019-05-10T12:48:23.181Z,99.90
2019-05-10T12:49:27.992Z,1.00
2019-05-10T12:50:32.822Z,99.90
2019-05-10T12:51:37.797Z,99.90
2019-05-10T12:52:43.444Z,99.90
2019-05-10T12:53:50.728Z,1.00
2019-05-10T12:54:54.923Z,99.90
2019-05-10T12:55:59.747Z,1.00
2019-05-10T12:57:04.563Z,1.00
2019-05-10T12:58:09.378Z,1.00
2019-05-10T12:59:14.145Z,1.00
2019-05-10T13:00:19.280Z,1.00
2019-05-10T13:01:25.790Z,1.00
2019-05-10T13:02:30.628Z,1.00
2019-05-10T13:03:35.453Z,1.00
2019-05-10T13:04:41.103Z,1.00
2019-05-10T13:05:52.528Z,99.90
2019-05-10T13:06:53.032Z,1.00
2019-05-10T13:07:57.919Z,1.00
2019-05-10T13:09:02.701Z,1.00
2019-05-10T13:10:09.439Z,1.00
2019-05-10T13:11:19.206Z,1.00
2019-05-10T13:12:21.279Z,1.00
2019-05-10T13:13:29.754Z,1.00
2019-05-10T13:14:32.668Z,17.10
2019-05-10T13:15:37.484Z,99.90
2019-05-10T13:16:42.285Z,99.90
2019-05-10T13:17:50.342Z,1.00
2019-05-10T13:18:53.667Z,1.00
2019-05-10T13:20:00.481Z,1.00
2019-05-10T13:21:07.754Z,1.00
2019-05-10T13:22:11.516Z,1.00
2019-05-10T13:23:18.478Z,1.00
2019-05-10T13:24:23.073Z,1.00
2019-05-10T13:25:32.746Z,1.00
2019-05-10T13:26:37.566Z,1.00
2019-05-10T13:27:42.470Z,99.90
2019-05-10T13:28:47.345Z,99.90
2019-05-10T13:29:53.627Z,99.90
2019-05-10T13:31:00.026Z,1.00
2019-05-10T13:32:06.571Z,1.00
2019-05-10T13:33:26.682Z,99.90
2019-05-10T13:34:17.897Z,99.90
2019-05-10T13:35:22.711Z,1.00
2019-05-10T13:36:30.630Z,1.00
2019-05-10T13:37:34.076Z,1.00
2019-05-10T13:38:43.168Z,1.00
2019-05-10T13:39:45.553Z,1.00
2019-05-10T13:40:50.433Z,99.90
2019-05-10T13:42:00.848Z,1.00
2019-05-10T13:43:01.658Z,99.90
2019-05-10T13:44:06.606Z,99.90
2019-05-10T13:45:11.549Z,1.00
2019-05-10T13:46:16.325Z,1.00
2019-05-10T13:47:21.106Z,1.00
2019-05-10T13:48:26.803Z,1.00
2019-05-10T13:49:31.816Z,99.90
2019-05-10T13:50:36.583Z,99.90
2019-05-10T13:51:41.444Z,99.90
2019-05-10T13:52:46.401Z,99.90
2019-05-10T13:53:53.908Z,99.90
2019-05-10T13:54:58.844Z,99.90
2019-05-10T13:56:03.701Z,99.90
2019-05-10T13:57:08.555Z,99.90
2019-05-10T13:58:13.465Z,1.00
2019-05-10T13:59:18.492Z,99.90
2019-05-10T14:00:33.173Z,99.90
2019-05-10T14:01:30.614Z,99.90
2019-05-10T14:02:35.466Z,99.90
2019-05-10T14:03:44.343Z,99.90
2019-05-10T14:04:47.883Z,99.90
2019-05-10T14:05:52.760Z,27.70
2019-05-10T14:06:57.659Z,16.20
2019-05-10T14:08:03.019Z,1.00
2019-05-10T14:09:08.769Z,1.00
2019-05-10T14:10:18.338Z,1.00
2019-05-10T14:11:23.979Z,1.00
2019-05-10T14:12:28.929Z,1.00
2019-05-10T14:13:35.642Z,1.00
2019-05-10T14:14:40.942Z,1.00
2019-05-10T14:15:45.859Z,1.00
2019-05-10T14:16:50.907Z,1.00
2019-05-10T14:17:55.810Z,1.00
2019-05-10T14:19:00.810Z,1.00
2019-05-10T14:20:06.868Z,1.00
2019-05-10T14:21:11.871Z,1.00